Alpine, Oregon
Current Conditions -  °F | °C
As of 8:35 PM on Tuesday 25 Nov 2014 (Local Time) from KCVO Reporting Station
Overcast Overcast  
Wind Chill: 13°   Ceiling: 5000
Heat Index: 13°   Visibility: 10mi
Dew Point: 12°   Wind: 6mph
Humidity: 94%   Direction: 200°SSW
Pressure: 30.33"   Gusts: NA
Location:  44.3398°N, 123.353°W
Report Text: KCVO 260435Z AUTO 20005KT 10SM OVC050 13/12 A3033 RMK AO1
Loading
Personal Weather Stations






























Interactive Weather Map New forecast layout! Learn more

10-Day Weather Forecast

Advertisements
Track Severe Weather on mobile